sensor_id;sensor_type;location;lat;lon;timestamp;temperature;humidity
61979;DHT22;47938;48.176;16.414;2022-08-04T00:01:50;22.20;54.40
61979;DHT22;47938;48.176;16.414;2022-08-04T00:04:21;22.20;54.40
61979;DHT22;47938;48.176;16.414;2022-08-04T00:10:00;22.00;54.80
61979;DHT22;47938;48.176;16.414;2022-08-04T00:12:27;22.10;55.40
61979;DHT22;47938;48.176;16.414;2022-08-04T00:14:53;22.00;55.20
61979;DHT22;47938;48.176;16.414;2022-08-04T00:17:22;22.00;55.70
61979;DHT22;47938;48.176;16.414;2022-08-04T00:19:51;22.00;55.60
61979;DHT22;47938;48.176;16.414;2022-08-04T00:22:18;22.00;55.80
61979;DHT22;47938;48.176;16.414;2022-08-04T00:24:46;21.90;55.50
61979;DHT22;47938;48.176;16.414;2022-08-04T00:27:12;21.90;55.60
61979;DHT22;47938;48.176;16.414;2022-08-04T00:29:37;21.90;56.00
61979;DHT22;47938;48.176;16.414;2022-08-04T00:32:03;21.90;55.80
61979;DHT22;47938;48.176;16.414;2022-08-04T00:34:30;21.80;55.70
61979;DHT22;47938;48.176;16.414;2022-08-04T00:36:56;21.80;55.80
61979;DHT22;47938;48.176;16.414;2022-08-04T00:39:22;21.70;56.20
61979;DHT22;47938;48.176;16.414;2022-08-04T00:46:59;21.60;56.50
61979;DHT22;47938;48.176;16.414;2022-08-04T01:00:26;21.50;58.20
61979;DHT22;47938;48.176;16.414;2022-08-04T01:10:32;21.40;58.80
61979;DHT22;47938;48.176;16.414;2022-08-04T01:13:24;21.30;58.90
61979;DHT22;47938;48.176;16.414;2022-08-04T01:18:24;21.20;60.00
61979;DHT22;47938;48.176;16.414;2022-08-04T01:30:48;21.10;60.40
61979;DHT22;47938;48.176;16.414;2022-08-04T01:33:17;21.10;60.50
61979;DHT22;47938;48.176;16.414;2022-08-04T01:35:46;21.10;60.30
61979;DHT22;47938;48.176;16.414;2022-08-04T01:38:17;21.00;60.60
61979;DHT22;47938;48.176;16.414;2022-08-04T01:40:43;21.00;60.90
61979;DHT22;47938;48.176;16.414;2022-08-04T01:43:09;20.90;61.30
61979;DHT22;47938;48.176;16.414;2022-08-04T01:45:37;20.90;61.20
61979;DHT22;47938;48.176;16.414;2022-08-04T01:48:04;20.90;61.50
61979;DHT22;47938;48.176;16.414;2022-08-04T01:50:32;20.80;61.60
61979;DHT22;47938;48.176;16.414;2022-08-04T01:52:58;20.80;61.80
61979;DHT22;47938;48.176;16.414;2022-08-04T01:55:24;20.80;61.90
61979;DHT22;47938;48.176;16.414;2022-08-04T01:57:52;20.80;62.00
61979;DHT22;47938;48.176;16.414;2022-08-04T02:00:19;20.80;62.10
61979;DHT22;47938;48.176;16.414;2022-08-04T02:02:45;20.70;62.20
61979;DHT22;47938;48.176;16.414;2022-08-04T02:05:11;20.60;62.00
61979;DHT22;47938;48.176;16.414;2022-08-04T02:10:05;20.40;62.70
61979;DHT22;47938;48.176;16.414;2022-08-04T02:20:24;20.40;63.40
61979;DHT22;47938;48.176;16.414;2022-08-04T02:22:57;20.40;63.50
61979;DHT22;47938;48.176;16.414;2022-08-04T02:25:24;20.40;63.80
61979;DHT22;47938;48.176;16.414;2022-08-04T02:30:18;20.40;63.70
61979;DHT22;47938;48.176;16.414;2022-08-04T02:32:43;20.40;63.60
61979;DHT22;47938;48.176;16.414;2022-08-04T02:35:14;20.30;63.50
61979;DHT22;47938;48.176;16.414;2022-08-04T02:37:47;20.20;63.80
61979;DHT22;47938;48.176;16.414;2022-08-04T02:40:12;20.20;64.00
61979;DHT22;47938;48.176;16.414;2022-08-04T02:42:40;20.20;63.70
61979;DHT22;47938;48.176;16.414;2022-08-04T02:45:07;20.20;64.00
61979;DHT22;47938;48.176;16.414;2022-08-04T02:47:33;20.20;64.00
61979;DHT22;47938;48.176;16.414;2022-08-04T02:49:59;20.20;64.00
61979;DHT22;47938;48.176;16.414;2022-08-04T02:52:25;20.20;63.90
61979;DHT22;47938;48.176;16.414;2022-08-04T02:54:52;20.10;63.90
61979;DHT22;47938;48.176;16.414;2022-08-04T02:57:18;20.10;64.20
61979;DHT22;47938;48.176;16.414;2022-08-04T03:02:11;19.90;64.30
61979;DHT22;47938;48.176;16.414;2022-08-04T03:04:46;19.80;64.70
61979;DHT22;47938;48.176;16.414;2022-08-04T03:10:09;19.50;65.90
61979;DHT22;47938;48.176;16.414;2022-08-04T03:20:37;19.50;66.30
61979;DHT22;47938;48.176;16.414;2022-08-04T03:33:30;19.70;66.00
61979;DHT22;47938;48.176;16.414;2022-08-04T03:36:05;19.70;66.10
61979;DHT22;47938;48.176;16.414;2022-08-04T03:43:48;19.60;66.30
61979;DHT22;47938;48.176;16.414;2022-08-04T03:46:26;19.70;66.20
61979;DHT22;47938;48.176;16.414;2022-08-04T03:56:56;19.80;66.30
61979;DHT22;47938;48.176;16.414;2022-08-04T04:12:40;20.00;64.10
61979;DHT22;47938;48.176;16.414;2022-08-04T04:15:16;20.10;64.00
61979;DHT22;47938;48.176;16.414;2022-08-04T04:20:16;20.30;62.50
61979;DHT22;47938;48.176;16.414;2022-08-04T04:30:30;20.30;61.80
61979;DHT22;47938;48.176;16.414;2022-08-04T04:33:12;20.40;61.90
61979;DHT22;47938;48.176;16.414;2022-08-04T04:41:07;20.80;60.40
61979;DHT22;47938;48.176;16.414;2022-08-04T04:43:45;21.00;60.20
61979;DHT22;47938;48.176;16.414;2022-08-04T04:48:56;21.10;59.70
61979;DHT22;47938;48.176;16.414;2022-08-04T04:51:33;21.10;59.80
61979;DHT22;47938;48.176;16.414;2022-08-04T04:59:22;21.10;60.00
61979;DHT22;47938;48.176;16.414;2022-08-04T05:06:53;21.50;58.70
61979;DHT22;47938;48.176;16.414;2022-08-04T05:14:17;22.40;54.70
61979;DHT22;47938;48.176;16.414;2022-08-04T05:16:50;23.00;53.50
61979;DHT22;47938;48.176;16.414;2022-08-04T05:21:46;23.90;50.90
61979;DHT22;47938;48.176;16.414;2022-08-04T05:24:13;24.40;49.40
61979;DHT22;47938;48.176;16.414;2022-08-04T05:26:43;24.90;48.10
61979;DHT22;47938;48.176;16.414;2022-08-04T05:29:10;25.50;46.70
61979;DHT22;47938;48.176;16.414;2022-08-04T05:31:39;26.00;45.70
61979;DHT22;47938;48.176;16.414;2022-08-04T05:34:12;26.80;44.10
61979;DHT22;47938;48.176;16.414;2022-08-04T05:36:39;27.20;42.80
61979;DHT22;47938;48.176;16.414;2022-08-04T05:39:05;27.90;41.60
61979;DHT22;47938;48.176;16.414;2022-08-04T05:41:32;28.30;40.60
61979;DHT22;47938;48.176;16.414;2022-08-04T05:43:57;28.80;39.70
61979;DHT22;47938;48.176;16.414;2022-08-04T05:46:23;29.20;39.00
61979;DHT22;47938;48.176;16.414;2022-08-04T05:48:49;29.30;37.90
61979;DHT22;47938;48.176;16.414;2022-08-04T05:51:15;29.30;38.20
61979;DHT22;47938;48.176;16.414;2022-08-04T05:53:41;28.60;38.60
61979;DHT22;47938;48.176;16.414;2022-08-04T05:56:07;28.50;39.10
61979;DHT22;47938;48.176;16.414;2022-08-04T05:58:33;29.20;38.60
61979;DHT22;47938;48.176;16.414;2022-08-04T06:01:00;30.00;37.10
61979;DHT22;47938;48.176;16.414;2022-08-04T06:03:26;30.80;35.50
61979;DHT22;47938;48.176;16.414;2022-08-04T06:05:53;30.00;36.40
61979;DHT22;47938;48.176;16.414;2022-08-04T06:08:18;31.00;35.20
61979;DHT22;47938;48.176;16.414;2022-08-04T06:10:45;31.30;34.40
61979;DHT22;47938;48.176;16.414;2022-08-04T06:13:11;32.00;32.80
61979;DHT22;47938;48.176;16.414;2022-08-04T06:15:37;32.50;31.50
61979;DHT22;47938;48.176;16.414;2022-08-04T06:18:05;32.90;31.10
61979;DHT22;47938;48.176;16.414;2022-08-04T06:20:34;33.10;29.40
61979;DHT22;47938;48.176;16.414;2022-08-04T06:23:07;33.20;29.40
61979;DHT22;47938;48.176;16.414;2022-08-04T06:25:37;33.40;29.10
61979;DHT22;47938;48.176;16.414;2022-08-04T06:28:06;33.60;29.00
61979;DHT22;47938;48.176;16.414;2022-08-04T06:30:32;33.80;28.90
61979;DHT22;47938;48.176;16.414;2022-08-04T06:32:58;34.20;28.00
61979;DHT22;47938;48.176;16.414;2022-08-04T06:35:24;34.40;28.10
61979;DHT22;47938;48.176;16.414;2022-08-04T06:37:50;34.80;27.70
61979;DHT22;47938;48.176;16.414;2022-08-04T06:40:17;34.90;27.60
61979;DHT22;47938;48.176;16.414;2022-08-04T06:42:42;34.90;26.80
61979;DHT22;47938;48.176;16.414;2022-08-04T06:45:09;35.00;26.80
61979;DHT22;47938;48.176;16.414;2022-08-04T06:47:36;35.10;26.50
61979;DHT22;47938;48.176;16.414;2022-08-04T06:50:03;35.30;26.50
61979;DHT22;47938;48.176;16.414;2022-08-04T06:52:29;34.80;26.30
61979;DHT22;47938;48.176;16.414;2022-08-04T06:54:54;34.80;26.70
61979;DHT22;47938;48.176;16.414;2022-08-04T06:57:26;34.80;26.80
61979;DHT22;47938;48.176;16.414;2022-08-04T07:00:25;34.70;26.80
61979;DHT22;47938;48.176;16.414;2022-08-04T07:02:45;34.90;27.00
61979;DHT22;47938;48.176;16.414;2022-08-04T07:05:11;35.10;26.50
61979;DHT22;47938;48.176;16.414;2022-08-04T07:07:37;34.90;26.80
61979;DHT22;47938;48.176;16.414;2022-08-04T07:10:03;34.70;27.00
61979;DHT22;47938;48.176;16.414;2022-08-04T07:12:29;33.80;27.10
61979;DHT22;47938;48.176;16.414;2022-08-04T07:14:56;33.40;28.70
61979;DHT22;47938;48.176;16.414;2022-08-04T07:17:22;33.70;28.20
61979;DHT22;47938;48.176;16.414;2022-08-04T07:19:48;33.50;28.50
61979;DHT22;47938;48.176;16.414;2022-08-04T07:22:13;33.00;28.60
61979;DHT22;47938;48.176;16.414;2022-08-04T07:24:40;32.20;29.40
61979;DHT22;47938;48.176;16.414;2022-08-04T07:27:05;32.30;29.60
61979;DHT22;47938;48.176;16.414;2022-08-04T07:29:34;32.10;29.30
61979;DHT22;47938;48.176;16.414;2022-08-04T07:32:00;32.70;29.30
61979;DHT22;47938;48.176;16.414;2022-08-04T07:34:26;33.20;29.30
61979;DHT22;47938;48.176;16.414;2022-08-04T07:36:53;33.80;28.70
61979;DHT22;47938;48.176;16.414;2022-08-04T07:39:19;33.60;28.70
61979;DHT22;47938;48.176;16.414;2022-08-04T07:41:45;33.60;29.00
61979;DHT22;47938;48.176;16.414;2022-08-04T07:44:11;32.80;29.30
61979;DHT22;47938;48.176;16.414;2022-08-04T07:46:37;31.10;31.50
61979;DHT22;47938;48.176;16.414;2022-08-04T07:49:03;31.50;31.90
61979;DHT22;47938;48.176;16.414;2022-08-04T07:51:30;31.90;31.00
61979;DHT22;47938;48.176;16.414;2022-08-04T07:53:55;32.20;30.70
61979;DHT22;47938;48.176;16.414;2022-08-04T07:56:21;32.00;30.10
61979;DHT22;47938;48.176;16.414;2022-08-04T07:58:47;31.60;31.60
61979;DHT22;47938;48.176;16.414;2022-08-04T08:01:12;32.00;31.00
61979;DHT22;47938;48.176;16.414;2022-08-04T08:03:38;31.60;31.40
61979;DHT22;47938;48.176;16.414;2022-08-04T08:06:04;31.30;31.50
61979;DHT22;47938;48.176;16.414;2022-08-04T08:08:30;31.10;32.30
61979;DHT22;47938;48.176;16.414;2022-08-04T08:10:55;31.30;32.10
61979;DHT22;47938;48.176;16.414;2022-08-04T08:13:21;30.90;31.90
61979;DHT22;47938;48.176;16.414;2022-08-04T08:15:48;30.60;32.80
61979;DHT22;47938;48.176;16.414;2022-08-04T08:18:13;30.80;32.90
61979;DHT22;47938;48.176;16.414;2022-08-04T08:20:39;30.20;33.50
61979;DHT22;47938;48.176;16.414;2022-08-04T08:23:08;30.20;33.60
61979;DHT22;47938;48.176;16.414;2022-08-04T08:25:34;29.10;35.60
61979;DHT22;47938;48.176;16.414;2022-08-04T08:28:00;28.60;37.00
61979;DHT22;47938;48.176;16.414;2022-08-04T08:30:26;28.90;37.10
61979;DHT22;47938;48.176;16.414;2022-08-04T08:32:52;29.50;35.60
61979;DHT22;47938;48.176;16.414;2022-08-04T08:35:17;29.90;34.70
61979;DHT22;47938;48.176;16.414;2022-08-04T08:37:53;30.20;34.40
61979;DHT22;47938;48.176;16.414;2022-08-04T08:45:40;30.70;33.60
61979;DHT22;47938;48.176;16.414;2022-08-04T08:51:18;30.50;33.50
61979;DHT22;47938;48.176;16.414;2022-08-04T08:53:50;30.20;34.60
61979;DHT22;47938;48.176;16.414;2022-08-04T09:01:58;30.30;34.30
61979;DHT22;47938;48.176;16.414;2022-08-04T09:12:10;29.50;35.40
61979;DHT22;47938;48.176;16.414;2022-08-04T09:17:30;29.80;34.70
61979;DHT22;47938;48.176;16.414;2022-08-04T09:20:00;30.00;35.00
61979;DHT22;47938;48.176;16.414;2022-08-04T09:22:28;30.10;34.30
61979;DHT22;47938;48.176;16.414;2022-08-04T09:24:59;30.10;33.60
61979;DHT22;47938;48.176;16.414;2022-08-04T09:27:31;30.10;33.60
61979;DHT22;47938;48.176;16.414;2022-08-04T09:35:05;30.10;32.80
61979;DHT22;47938;48.176;16.414;2022-08-04T09:37:41;30.10;33.00
61979;DHT22;47938;48.176;16.414;2022-08-04T09:40:10;30.30;33.20
61979;DHT22;47938;48.176;16.414;2022-08-04T09:42:41;30.30;31.60
61979;DHT22;47938;48.176;16.414;2022-08-04T09:47:45;30.50;32.20
61979;DHT22;47938;48.176;16.414;2022-08-04T09:50:29;30.40;30.80
61979;DHT22;47938;48.176;16.414;2022-08-04T09:57:56;30.70;30.10
61979;DHT22;47938;48.176;16.414;2022-08-04T10:00:21;30.50;29.80
61979;DHT22;47938;48.176;16.414;2022-08-04T10:02:54;30.60;29.00
61979;DHT22;47938;48.176;16.414;2022-08-04T10:05:21;30.80;28.40
61979;DHT22;47938;48.176;16.414;2022-08-04T10:07:58;31.00;27.80
61979;DHT22;47938;48.176;16.414;2022-08-04T10:10:39;31.20;27.80
61979;DHT22;47938;48.176;16.414;2022-08-04T10:23:35;31.00;27.50
61979;DHT22;47938;48.176;16.414;2022-08-04T10:28:43;31.10;27.60
61979;DHT22;47938;48.176;16.414;2022-08-04T10:31:10;31.30;27.40
61979;DHT22;47938;48.176;16.414;2022-08-04T10:34:20;31.30;27.40
61979;DHT22;47938;48.176;16.414;2022-08-04T10:36:30;31.20;26.90
61979;DHT22;47938;48.176;16.414;2022-08-04T10:39:00;31.20;27.00
61979;DHT22;47938;48.176;16.414;2022-08-04T10:41:35;31.40;27.60
61979;DHT22;47938;48.176;16.414;2022-08-04T10:44:16;31.30;27.30
61979;DHT22;47938;48.176;16.414;2022-08-04T10:46:46;31.40;27.70
61979;DHT22;47938;48.176;16.414;2022-08-04T10:54:25;31.40;27.50
61979;DHT22;47938;48.176;16.414;2022-08-04T10:57:18;31.40;27.60
61979;DHT22;47938;48.176;16.414;2022-08-04T10:59:59;31.50;27.10
61979;DHT22;47938;48.176;16.414;2022-08-04T11:05:00;31.60;27.20
61979;DHT22;47938;48.176;16.414;2022-08-04T11:07:29;31.80;27.20
61979;DHT22;47938;48.176;16.414;2022-08-04T11:09:56;31.90;27.60
61979;DHT22;47938;48.176;16.414;2022-08-04T11:12:23;32.00;27.10
61979;DHT22;47938;48.176;16.414;2022-08-04T11:14:55;32.00;26.80
61979;DHT22;47938;48.176;16.414;2022-08-04T11:17:26;32.10;27.00
61979;DHT22;47938;48.176;16.414;2022-08-04T11:19:58;31.90;27.00
61979;DHT22;47938;48.176;16.414;2022-08-04T11:22:26;31.70;27.40
61979;DHT22;47938;48.176;16.414;2022-08-04T11:24:54;31.70;27.70
61979;DHT22;47938;48.176;16.414;2022-08-04T11:27:26;31.70;27.90
61979;DHT22;47938;48.176;16.414;2022-08-04T11:32:25;31.70;27.50
61979;DHT22;47938;48.176;16.414;2022-08-04T11:34:56;31.70;27.50
61979;DHT22;47938;48.176;16.414;2022-08-04T11:40:23;32.10;27.20
61979;DHT22;47938;48.176;16.414;2022-08-04T11:42:56;32.30;27.30
61979;DHT22;47938;48.176;16.414;2022-08-04T11:45:33;32.30;27.80
61979;DHT22;47938;48.176;16.414;2022-08-04T11:48:18;32.00;26.90
61979;DHT22;47938;48.176;16.414;2022-08-04T11:50:51;31.70;27.50
61979;DHT22;47938;48.176;16.414;2022-08-04T11:53:18;31.80;27.30
61979;DHT22;47938;48.176;16.414;2022-08-04T11:55:44;31.90;27.60
61979;DHT22;47938;48.176;16.414;2022-08-04T11:58:10;32.00;27.60
61979;DHT22;47938;48.176;16.414;2022-08-04T12:00:37;32.30;27.50
61979;DHT22;47938;48.176;16.414;2022-08-04T12:11:20;32.70;26.80
61979;DHT22;47938;48.176;16.414;2022-08-04T12:13:56;32.80;26.70
61979;DHT22;47938;48.176;16.414;2022-08-04T12:16:35;32.70;26.50
61979;DHT22;47938;48.176;16.414;2022-08-04T12:19:12;32.50;26.30
61979;DHT22;47938;48.176;16.414;2022-08-04T12:21:41;32.40;27.00
61979;DHT22;47938;48.176;16.414;2022-08-04T12:24:53;32.30;26.80
61979;DHT22;47938;48.176;16.414;2022-08-04T12:27:01;32.10;27.10
61979;DHT22;47938;48.176;16.414;2022-08-04T12:29:27;32.10;27.10
61979;DHT22;47938;48.176;16.414;2022-08-04T12:31:56;32.10;27.00
61979;DHT22;47938;48.176;16.414;2022-08-04T12:34:38;32.00;27.30
61979;DHT22;47938;48.176;16.414;2022-08-04T12:39:49;32.30;27.30
61979;DHT22;47938;48.176;16.414;2022-08-04T12:45:02;32.40;27.10
61979;DHT22;47938;48.176;16.414;2022-08-04T12:47:29;32.20;27.20
61979;DHT22;47938;48.176;16.414;2022-08-04T12:50:00;32.50;27.20
61979;DHT22;47938;48.176;16.414;2022-08-04T12:52:26;32.60;27.30
61979;DHT22;47938;48.176;16.414;2022-08-04T12:54:52;32.80;27.20
61979;DHT22;47938;48.176;16.414;2022-08-04T12:57:18;32.80;27.00
61979;DHT22;47938;48.176;16.414;2022-08-04T12:59:45;32.90;27.00
61979;DHT22;47938;48.176;16.414;2022-08-04T13:02:18;32.80;26.60
61979;DHT22;47938;48.176;16.414;2022-08-04T13:04:47;32.70;27.00
61979;DHT22;47938;48.176;16.414;2022-08-04T13:07:14;32.60;27.20
61979;DHT22;47938;48.176;16.414;2022-08-04T13:09:40;32.70;27.10
61979;DHT22;47938;48.176;16.414;2022-08-04T13:12:16;32.60;27.10
61979;DHT22;47938;48.176;16.414;2022-08-04T13:14:43;32.60;27.10
61979;DHT22;47938;48.176;16.414;2022-08-04T13:17:10;32.90;27.30
61979;DHT22;47938;48.176;16.414;2022-08-04T13:19:36;33.00;26.90
61979;DHT22;47938;48.176;16.414;2022-08-04T13:22:02;33.00;26.70
61979;DHT22;47938;48.176;16.414;2022-08-04T13:24:28;32.40;27.00
61979;DHT22;47938;48.176;16.414;2022-08-04T13:26:56;32.60;27.20
61979;DHT22;47938;48.176;16.414;2022-08-04T13:29:30;32.50;27.10
61979;DHT22;47938;48.176;16.414;2022-08-04T13:31:56;32.70;27.60
61979;DHT22;47938;48.176;16.414;2022-08-04T13:34:22;32.80;27.80
61979;DHT22;47938;48.176;16.414;2022-08-04T13:36:48;32.80;27.40
61979;DHT22;47938;48.176;16.414;2022-08-04T13:39:16;32.90;27.20
61979;DHT22;47938;48.176;16.414;2022-08-04T13:41:42;32.90;27.10
61979;DHT22;47938;48.176;16.414;2022-08-04T13:44:09;33.00;27.30
61979;DHT22;47938;48.176;16.414;2022-08-04T13:46:39;33.00;27.10
61979;DHT22;47938;48.176;16.414;2022-08-04T13:49:08;32.90;27.00
61979;DHT22;47938;48.176;16.414;2022-08-04T13:51:33;33.00;26.90
61979;DHT22;47938;48.176;16.414;2022-08-04T13:53:59;33.00;26.80
61979;DHT22;47938;48.176;16.414;2022-08-04T13:56:29;33.10;26.60
61979;DHT22;47938;48.176;16.414;2022-08-04T13:58:56;33.10;26.80
61979;DHT22;47938;48.176;16.414;2022-08-04T14:01:22;33.10;26.90
61979;DHT22;47938;48.176;16.414;2022-08-04T14:08:50;33.00;26.80
61979;DHT22;47938;48.176;16.414;2022-08-04T14:11:17;33.10;26.90
61979;DHT22;47938;48.176;16.414;2022-08-04T14:13:42;33.10;26.90
61979;DHT22;47938;48.176;16.414;2022-08-04T14:16:14;33.00;27.20
61979;DHT22;47938;48.176;16.414;2022-08-04T14:18:40;33.00;26.60
61979;DHT22;47938;48.176;16.414;2022-08-04T14:21:06;32.90;26.70
61979;DHT22;47938;48.176;16.414;2022-08-04T14:26:28;32.50;26.60
61979;DHT22;47938;48.176;16.414;2022-08-04T14:28:55;32.50;26.60
61979;DHT22;47938;48.176;16.414;2022-08-04T14:31:21;32.40;26.20
61979;DHT22;47938;48.176;16.414;2022-08-04T14:33:47;32.50;26.70
61979;DHT22;47938;48.176;16.414;2022-08-04T14:36:13;32.70;26.20
61979;DHT22;47938;48.176;16.414;2022-08-04T14:38:43;32.60;26.50
61979;DHT22;47938;48.176;16.414;2022-08-04T14:41:09;32.60;26.40
61979;DHT22;47938;48.176;16.414;2022-08-04T14:43:41;32.50;26.40
61979;DHT22;47938;48.176;16.414;2022-08-04T14:46:07;32.60;26.80
61979;DHT22;47938;48.176;16.414;2022-08-04T14:48:33;32.60;27.00
61979;DHT22;47938;48.176;16.414;2022-08-04T14:50:59;32.70;26.90
61979;DHT22;47938;48.176;16.414;2022-08-04T14:53:24;32.70;27.00
61979;DHT22;47938;48.176;16.414;2022-08-04T14:55:54;32.70;26.70
61979;DHT22;47938;48.176;16.414;2022-08-04T14:58:20;32.80;26.80
61979;DHT22;47938;48.176;16.414;2022-08-04T15:00:46;32.90;27.00
61979;DHT22;47938;48.176;16.414;2022-08-04T15:03:12;32.80;26.60
61979;DHT22;47938;48.176;16.414;2022-08-04T15:05:38;32.80;26.50
61979;DHT22;47938;48.176;16.414;2022-08-04T15:08:04;32.90;26.50
61979;DHT22;47938;48.176;16.414;2022-08-04T15:10:30;32.70;26.60
61979;DHT22;47938;48.176;16.414;2022-08-04T15:12:55;32.60;26.60
61979;DHT22;47938;48.176;16.414;2022-08-04T15:15:21;32.40;26.60
61979;DHT22;47938;48.176;16.414;2022-08-04T15:17:47;32.50;26.70
61979;DHT22;47938;48.176;16.414;2022-08-04T15:20:13;32.40;26.70
61979;DHT22;47938;48.176;16.414;2022-08-04T15:22:38;32.30;26.70
61979;DHT22;47938;48.176;16.414;2022-08-04T15:25:04;32.30;26.90
61979;DHT22;47938;48.176;16.414;2022-08-04T15:27:30;32.40;26.70
61979;DHT22;47938;48.176;16.414;2022-08-04T15:29:59;32.30;26.80
61979;DHT22;47938;48.176;16.414;2022-08-04T15:32:25;32.30;26.70
61979;DHT22;47938;48.176;16.414;2022-08-04T15:34:52;32.30;26.80
61979;DHT22;47938;48.176;16.414;2022-08-04T15:40:13;32.30;26.70
61979;DHT22;47938;48.176;16.414;2022-08-04T15:47:39;32.20;27.10
61979;DHT22;47938;48.176;16.414;2022-08-04T15:50:08;32.20;27.00
61979;DHT22;47938;48.176;16.414;2022-08-04T15:55:41;32.20;27.00
61979;DHT22;47938;48.176;16.414;2022-08-04T15:58:08;32.20;26.90
61979;DHT22;47938;48.176;16.414;2022-08-04T16:03:59;32.00;26.90
61979;DHT22;47938;48.176;16.414;2022-08-04T16:16:27;32.00;26.80
61979;DHT22;47938;48.176;16.414;2022-08-04T16:18:53;32.00;26.80
61979;DHT22;47938;48.176;16.414;2022-08-04T16:21:22;32.00;26.70
61979;DHT22;47938;48.176;16.414;2022-08-04T16:29:00;31.90;27.00
61979;DHT22;47938;48.176;16.414;2022-08-04T16:31:26;31.90;26.90
61979;DHT22;47938;48.176;16.414;2022-08-04T16:33:56;31.90;26.80
61979;DHT22;47938;48.176;16.414;2022-08-04T16:36:25;31.80;27.00
61979;DHT22;47938;48.176;16.414;2022-08-04T16:39:11;31.80;27.00
61979;DHT22;47938;48.176;16.414;2022-08-04T16:41:42;31.80;27.00
61979;DHT22;47938;48.176;16.414;2022-08-04T16:44:50;31.80;26.50
61979;DHT22;47938;48.176;16.414;2022-08-04T16:46:57;31.70;26.40
61979;DHT22;47938;48.176;16.414;2022-08-04T16:49:23;31.70;27.20
61979;DHT22;47938;48.176;16.414;2022-08-04T16:51:49;31.60;26.50
61979;DHT22;47938;48.176;16.414;2022-08-04T16:54:15;31.60;26.50
61979;DHT22;47938;48.176;16.414;2022-08-04T16:56:41;31.60;26.40
61979;DHT22;47938;48.176;16.414;2022-08-04T16:59:10;31.60;26.20
61979;DHT22;47938;48.176;16.414;2022-08-04T17:01:36;31.50;26.00
61979;DHT22;47938;48.176;16.414;2022-08-04T17:04:03;31.50;26.20
61979;DHT22;47938;48.176;16.414;2022-08-04T17:06:32;31.40;26.30
61979;DHT22;47938;48.176;16.414;2022-08-04T17:08:59;31.40;26.30
61979;DHT22;47938;48.176;16.414;2022-08-04T17:11:31;31.40;26.30
61979;DHT22;47938;48.176;16.414;2022-08-04T17:13:56;31.30;26.30
61979;DHT22;47938;48.176;16.414;2022-08-04T17:16:22;31.30;26.50
61979;DHT22;47938;48.176;16.414;2022-08-04T17:18:48;31.30;26.60
61979;DHT22;47938;48.176;16.414;2022-08-04T17:21:15;31.30;26.60
61979;DHT22;47938;48.176;16.414;2022-08-04T17:23:42;31.20;26.50
61979;DHT22;47938;48.176;16.414;2022-08-04T17:26:12;31.20;26.40
61979;DHT22;47938;48.176;16.414;2022-08-04T17:28:38;31.10;26.30
61979;DHT22;47938;48.176;16.414;2022-08-04T17:31:05;31.10;26.70
61979;DHT22;47938;48.176;16.414;2022-08-04T17:33:31;31.00;26.80
61979;DHT22;47938;48.176;16.414;2022-08-04T17:35:57;31.00;26.90
61979;DHT22;47938;48.176;16.414;2022-08-04T17:38:34;31.00;27.10
61979;DHT22;47938;48.176;16.414;2022-08-04T17:41:01;30.90;27.10
61979;DHT22;47938;48.176;16.414;2022-08-04T17:44:00;30.90;27.30
61979;DHT22;47938;48.176;16.414;2022-08-04T17:48:44;30.70;27.80
61979;DHT22;47938;48.176;16.414;2022-08-04T17:51:13;30.70;28.00
61979;DHT22;47938;48.176;16.414;2022-08-04T17:53:38;30.70;28.30
61979;DHT22;47938;48.176;16.414;2022-08-04T17:56:04;30.60;28.50
61979;DHT22;47938;48.176;16.414;2022-08-04T17:58:29;30.50;28.70
61979;DHT22;47938;48.176;16.414;2022-08-04T18:01:01;30.50;29.00
61979;DHT22;47938;48.176;16.414;2022-08-04T18:03:27;30.40;29.20
61979;DHT22;47938;48.176;16.414;2022-08-04T18:05:52;30.30;29.50
61979;DHT22;47938;48.176;16.414;2022-08-04T18:08:25;30.30;29.80
61979;DHT22;47938;48.176;16.414;2022-08-04T18:10:51;30.30;29.90
61979;DHT22;47938;48.176;16.414;2022-08-04T18:13:17;30.20;30.00
61979;DHT22;47938;48.176;16.414;2022-08-04T18:15:42;30.10;30.10
61979;DHT22;47938;48.176;16.414;2022-08-04T18:18:18;30.10;30.00
61979;DHT22;47938;48.176;16.414;2022-08-04T18:20:43;30.10;30.00
61979;DHT22;47938;48.176;16.414;2022-08-04T18:23:09;30.00;30.10
61979;DHT22;47938;48.176;16.414;2022-08-04T18:25:35;29.90;30.40
61979;DHT22;47938;48.176;16.414;2022-08-04T18:28:00;29.90;30.40
61979;DHT22;47938;48.176;16.414;2022-08-04T18:30:28;29.80;30.60
61979;DHT22;47938;48.176;16.414;2022-08-04T18:32:54;29.80;31.40
61979;DHT22;47938;48.176;16.414;2022-08-04T18:35:19;29.60;31.10
61979;DHT22;47938;48.176;16.414;2022-08-04T18:37:45;29.50;31.40
61979;DHT22;47938;48.176;16.414;2022-08-04T18:40:11;29.40;31.60
61979;DHT22;47938;48.176;16.414;2022-08-04T18:42:36;29.40;31.90
61979;DHT22;47938;48.176;16.414;2022-08-04T18:45:02;29.30;32.10
61979;DHT22;47938;48.176;16.414;2022-08-04T18:47:28;29.20;32.40
61979;DHT22;47938;48.176;16.414;2022-08-04T18:49:54;29.10;32.30
61979;DHT22;47938;48.176;16.414;2022-08-04T18:52:20;29.10;32.60
61979;DHT22;47938;48.176;16.414;2022-08-04T18:54:45;29.00;32.40
61979;DHT22;47938;48.176;16.414;2022-08-04T18:57:11;29.00;32.90
61979;DHT22;47938;48.176;16.414;2022-08-04T18:59:36;28.90;33.10
61979;DHT22;47938;48.176;16.414;2022-08-04T19:02:02;28.90;33.20
61979;DHT22;47938;48.176;16.414;2022-08-04T19:04:27;28.80;33.10
61979;DHT22;47938;48.176;16.414;2022-08-04T19:06:53;28.80;33.20
61979;DHT22;47938;48.176;16.414;2022-08-04T19:09:18;28.80;33.30
61979;DHT22;47938;48.176;16.414;2022-08-04T19:11:44;28.70;33.90
61979;DHT22;47938;48.176;16.414;2022-08-04T19:14:09;28.60;33.90
61979;DHT22;47938;48.176;16.414;2022-08-04T19:16:35;28.50;34.30
61979;DHT22;47938;48.176;16.414;2022-08-04T19:19:04;28.40;34.50
61979;DHT22;47938;48.176;16.414;2022-08-04T19:21:30;28.40;35.10
61979;DHT22;47938;48.176;16.414;2022-08-04T19:23:55;28.30;35.00
61979;DHT22;47938;48.176;16.414;2022-08-04T19:26:21;28.20;34.90
61979;DHT22;47938;48.176;16.414;2022-08-04T19:28:46;28.20;35.10
61979;DHT22;47938;48.176;16.414;2022-08-04T19:31:12;28.10;34.80
61979;DHT22;47938;48.176;16.414;2022-08-04T19:33:38;28.10;35.10
61979;DHT22;47938;48.176;16.414;2022-08-04T19:36:05;28.10;35.50
61979;DHT22;47938;48.176;16.414;2022-08-04T19:38:30;28.00;35.40